createdAt,value
2022-12-27T00:01:29.530Z,90.69
2022-12-27T00:04:31.967Z,90.44
2022-12-27T00:07:34.491Z,90.46
2022-12-27T00:10:37.381Z,90.74
2022-12-27T00:13:40.118Z,91.22
2022-12-27T00:16:42.656Z,91.02
2022-12-27T00:19:45.442Z,90.94
2022-12-27T00:22:47.934Z,91.33
2022-12-27T00:25:50.373Z,91.33
2022-12-27T00:28:54.205Z,91.23
2022-12-27T00:31:56.684Z,91.01
2022-12-27T00:34:59.201Z,91.23
2022-12-27T00:38:01.724Z,91.45
2022-12-27T00:41:05.932Z,91.66
2022-12-27T00:44:08.877Z,91.83
2022-12-27T00:47:12.145Z,91.70
2022-12-27T00:50:14.694Z,91.65
2022-12-27T00:53:17.158Z,91.97
2022-12-27T00:56:25.519Z,92.40
2022-12-27T00:59:28.301Z,92.41
2022-12-27T01:02:30.851Z,92.39
2022-12-27T01:05:37.358Z,91.88
2022-12-27T01:08:40.287Z,92.11
2022-12-27T01:11:42.763Z,92.14
2022-12-27T01:14:45.713Z,91.82
2022-12-27T01:17:48.328Z,91.93
2022-12-27T01:20:50.817Z,91.90
2022-12-27T01:23:53.625Z,91.62
2022-12-27T01:26:56.364Z,91.40
2022-12-27T01:29:58.951Z,91.55
2022-12-27T01:33:01.460Z,91.61
2022-12-27T01:36:12.466Z,91.29
2022-12-27T01:39:15.010Z,91.72
2022-12-27T01:42:38.494Z,92.08
2022-12-27T01:45:41.166Z,92.09
2022-12-27T01:48:44.891Z,91.49
2022-12-27T01:51:47.718Z,91.13
2022-12-27T01:54:51.054Z,90.25
2022-12-27T01:57:58.254Z,89.33
2022-12-27T02:01:02.191Z,88.85
2022-12-27T02:04:18.940Z,89.43
2022-12-27T02:07:31.835Z,89.61
2022-12-27T02:10:35.234Z,90.07
2022-12-27T02:13:42.567Z,90.18
2022-12-27T02:16:46.398Z,90.99
2022-12-27T02:20:10.836Z,90.81
2022-12-27T02:23:58.137Z,91.06
2022-12-27T02:27:12.694Z,91.10
2022-12-27T02:30:15.789Z,90.90
2022-12-27T02:33:22.243Z,91.13
2022-12-27T02:36:30.004Z,91.14
2022-12-27T02:39:36.174Z,91.35
2022-12-27T02:42:57.480Z,90.95
2022-12-27T02:46:46.062Z,90.59
2022-12-27T02:50:06.957Z,91.13
2022-12-27T02:53:24.064Z,90.92
2022-12-27T02:57:08.476Z,90.52
2022-12-27T03:00:36.903Z,89.80
2022-12-27T03:04:08.327Z,89.86
2022-12-27T03:07:34.940Z,90.06
2022-12-27T03:11:16.839Z,89.86
2022-12-27T03:14:46.780Z,89.73
2022-12-27T03:18:02.214Z,90.13
2022-12-27T03:21:25.829Z,90.79
2022-12-27T03:24:51.016Z,91.51
2022-12-27T03:28:31.477Z,91.83
2022-12-27T03:31:57.741Z,91.87
2022-12-27T03:35:08.208Z,91.85
2022-12-27T03:38:14.030Z,90.08
2022-12-27T03:41:43.247Z,89.69
2022-12-27T03:44:45.899Z,85.46
2022-12-27T03:47:55.497Z,81.54
2022-12-27T03:51:05.177Z,80.04
2022-12-27T03:54:16.315Z,78.77
2022-12-27T03:57:21.576Z,77.87
2022-12-27T04:00:24.171Z,78.69
2022-12-27T04:03:26.766Z,79.26
2022-12-27T04:06:29.322Z,79.54
2022-12-27T04:09:50.755Z,78.03
2022-12-27T04:13:11.669Z,77.57
2022-12-27T04:16:32.480Z,74.55
2022-12-27T04:19:53.236Z,73.58
2022-12-27T04:23:14.402Z,73.58
2022-12-27T04:26:35.663Z,72.75
2022-12-27T04:29:56.416Z,72.04
2022-12-27T04:33:17.049Z,71.86
2022-12-27T04:36:20.447Z,71.85
2022-12-27T04:39:25.350Z,71.16
2022-12-27T04:42:46.124Z,70.57
2022-12-27T04:46:07.302Z,70.18
2022-12-27T04:49:41.256Z,69.98
2022-12-27T04:53:02.720Z,70.62
2022-12-27T04:56:06.564Z,69.65
2022-12-27T04:59:27.905Z,69.79
2022-12-27T05:02:30.596Z,69.87
2022-12-27T05:05:35.383Z,69.34
2022-12-27T05:08:56.686Z,69.37
2022-12-27T05:12:17.738Z,69.06
2022-12-27T05:15:20.123Z,69.31
2022-12-27T05:18:23.362Z,70.14
2022-12-27T05:21:26.512Z,70.16
2022-12-27T05:24:47.330Z,70.21
2022-12-27T05:27:49.892Z,70.51
2022-12-27T05:30:52.415Z,70.27
2022-12-27T05:33:55.805Z,70.00
2022-12-27T05:36:58.274Z,70.87
2022-12-27T05:40:00.737Z,70.60
2022-12-27T05:43:04.117Z,71.04
2022-12-27T05:46:15.344Z,70.59
2022-12-27T05:49:17.999Z,71.37
2022-12-27T05:52:20.718Z,70.95
2022-12-27T05:55:23.250Z,70.30
2022-12-27T05:58:25.892Z,70.83
2022-12-27T06:01:28.788Z,70.88
2022-12-27T06:04:31.280Z,71.05
2022-12-27T06:07:35.852Z,71.97
2022-12-27T06:10:38.427Z,71.75
2022-12-27T06:13:42.340Z,71.86
2022-12-27T06:16:45.077Z,72.84
2022-12-27T06:19:51.177Z,71.69
2022-12-27T06:22:59.446Z,70.75
2022-12-27T06:26:10.738Z,70.52
2022-12-27T06:29:13.411Z,69.28
2022-12-27T06:32:17.798Z,69.84
2022-12-27T06:35:20.785Z,69.62
2022-12-27T06:38:24.251Z,70.34
2022-12-27T06:41:26.715Z,70.28
2022-12-27T06:44:29.352Z,69.62
2022-12-27T06:47:32.070Z,69.68
2022-12-27T06:50:34.567Z,69.55
2022-12-27T06:53:37.596Z,69.78
2022-12-27T06:56:40.051Z,70.58
2022-12-27T06:59:42.569Z,68.83
2022-12-27T07:02:45.430Z,67.60
2022-12-27T07:05:47.959Z,67.46
2022-12-27T07:08:51.205Z,67.24
2022-12-27T07:11:54.082Z,67.40
2022-12-27T07:14:56.572Z,66.25
2022-12-27T07:17:59.898Z,66.84
2022-12-27T07:21:07.710Z,67.41
2022-12-27T07:24:10.900Z,66.35
2022-12-27T07:27:13.480Z,67.20
2022-12-27T07:30:15.950Z,67.88
2022-12-27T07:33:18.423Z,68.01
2022-12-27T07:36:28.698Z,67.40
2022-12-27T07:39:31.204Z,67.70
2022-12-27T07:42:33.811Z,67.32
2022-12-27T07:45:36.362Z,67.79
2022-12-27T07:48:39.543Z,66.91
2022-12-27T07:51:42.010Z,67.38
2022-12-27T07:54:44.537Z,67.16
2022-12-27T07:57:47.017Z,67.42
2022-12-27T08:00:51.392Z,67.04
2022-12-27T08:03:54.394Z,65.90
2022-12-27T08:07:07.030Z,66.28
2022-12-27T08:10:10.682Z,66.83
2022-12-27T08:13:13.294Z,66.49
2022-12-27T08:16:23.193Z,66.46
2022-12-27T08:19:26.036Z,65.97
2022-12-27T08:22:28.636Z,66.89
2022-12-27T08:25:32.172Z,66.73
2022-12-27T08:28:35.438Z,65.92
2022-12-27T08:31:37.925Z,64.78
2022-12-27T08:34:40.446Z,64.76
2022-12-27T08:37:42.898Z,64.54
2022-12-27T08:40:46.131Z,64.39
2022-12-27T08:43:48.560Z,63.92
2022-12-27T08:46:51.118Z,64.81
2022-12-27T08:49:53.590Z,65.11
2022-12-27T08:53:00.870Z,64.25
2022-12-27T08:56:03.488Z,64.56
2022-12-27T08:59:05.939Z,64.60
2022-12-27T09:02:11.224Z,64.04
2022-12-27T09:05:13.818Z,64.21
2022-12-27T09:08:16.933Z,64.31
2022-12-27T09:11:25.073Z,64.48
2022-12-27T09:14:30.170Z,64.81
2022-12-27T09:17:33.135Z,64.65
2022-12-27T09:20:37.458Z,63.39
2022-12-27T09:23:41.078Z,63.78
2022-12-27T09:26:43.921Z,64.61
2022-12-27T09:29:48.558Z,63.47
2022-12-27T09:32:51.174Z,63.67
2022-12-27T09:35:54.062Z,63.13
2022-12-27T09:38:58.233Z,62.48
2022-12-27T09:45:37.873Z,59.17
2022-12-27T09:48:41.119Z,58.11
2022-12-27T09:51:52.675Z,57.60
2022-12-27T09:55:43.527Z,57.76
2022-12-27T09:59:02.902Z,57.54
2022-12-27T10:02:21.308Z,55.49
2022-12-27T10:05:31.291Z,55.85
2022-12-27T10:09:02.184Z,55.76
2022-12-27T10:12:19.577Z,54.38
2022-12-27T10:15:31.883Z,55.22
2022-12-27T10:18:47.258Z,54.88
2022-12-27T10:22:11.526Z,54.19
2022-12-27T10:25:15.851Z,54.86
2022-12-27T10:28:25.626Z,53.94
2022-12-27T10:31:31.204Z,52.39
2022-12-27T10:34:33.693Z,51.78
2022-12-27T10:37:36.179Z,51.13
2022-12-27T10:40:50.558Z,52.63
2022-12-27T10:43:54.926Z,52.10
2022-12-27T10:46:57.634Z,51.67
2022-12-27T10:50:09.568Z,52.39
2022-12-27T10:53:38.332Z,52.22
2022-12-27T10:56:44.287Z,51.85
2022-12-27T11:00:18.818Z,52.65
2022-12-27T11:03:21.362Z,53.21
2022-12-27T11:06:25.794Z,53.00
2022-12-27T11:09:46.368Z,53.15
2022-12-27T11:13:01.781Z,51.64
2022-12-27T11:16:05.569Z,51.78
2022-12-27T11:19:22.911Z,52.10
2022-12-27T11:22:26.612Z,52.93
2022-12-27T11:25:30.225Z,52.29
2022-12-27T11:28:42.551Z,52.63
2022-12-27T11:31:48.614Z,53.12
2022-12-27T11:34:54.593Z,52.57
2022-12-27T11:37:57.336Z,52.35
2022-12-27T11:40:59.790Z,52.11
2022-12-27T11:44:08.299Z,52.61
2022-12-27T11:47:22.302Z,52.55
2022-12-27T11:50:27.645Z,52.57
2022-12-27T11:54:06.877Z,52.10
2022-12-27T11:57:12.289Z,51.03
2022-12-27T12:00:24.628Z,51.39
2022-12-27T12:04:08.224Z,51.67
2022-12-27T12:07:15.275Z,49.96
2022-12-27T12:10:30.216Z,50.25
2022-12-27T12:14:04.543Z,49.15
2022-12-27T12:17:40.211Z,48.63
2022-12-27T12:20:55.113Z,48.77
2022-12-27T12:24:22.179Z,49.50
2022-12-27T12:27:49.144Z,49.43
2022-12-27T12:31:39.079Z,49.54
2022-12-27T12:34:58.975Z,49.81
2022-12-27T12:38:13.206Z,49.26
2022-12-27T12:41:52.472Z,49.40
2022-12-27T12:45:13.253Z,49.23
2022-12-27T12:48:30.901Z,50.34
2022-12-27T12:52:28.904Z,49.83
2022-12-27T12:55:48.459Z,50.44
2022-12-27T12:59:09.206Z,49.73
2022-12-27T13:02:42.331Z,49.77
2022-12-27T13:06:01.235Z,48.82
2022-12-27T13:09:42.619Z,47.08
2022-12-27T13:12:59.971Z,47.69
2022-12-27T13:16:08.145Z,47.65
2022-12-27T13:19:32.364Z,46.18
2022-12-27T13:22:40.814Z,44.37
2022-12-27T13:26:24.487Z,44.96
2022-12-27T13:29:41.597Z,46.00
2022-12-27T13:33:12.426Z,46.06
2022-12-27T13:36:26.865Z,44.83
2022-12-27T13:40:00.037Z,45.74
2022-12-27T13:43:24.184Z,46.42
2022-12-27T13:47:04.249Z,45.91
2022-12-27T13:50:31.741Z,45.92
2022-12-27T13:54:06.109Z,45.74
2022-12-27T13:57:23.602Z,45.65
2022-12-27T14:00:32.988Z,45.43
2022-12-27T14:03:55.054Z,46.29
2022-12-27T14:07:29.988Z,46.52
2022-12-27T14:10:48.144Z,46.49
2022-12-27T14:13:51.409Z,46.71
2022-12-27T14:17:15.660Z,47.48
2022-12-27T14:20:55.623Z,47.98
2022-12-27T14:24:16.732Z,49.14
2022-12-27T14:27:40.930Z,50.47
2022-12-27T14:31:22.282Z,51.42
2022-12-27T14:34:51.307Z,51.99
2022-12-27T14:37:59.788Z,52.85
2022-12-27T14:41:26.480Z,53.26
2022-12-27T14:45:06.427Z,53.43
2022-12-27T14:48:39.731Z,53.00
2022-12-27T14:52:00.720Z,53.59
2022-12-27T14:55:31.844Z,53.77
2022-12-27T14:59:29.712Z,53.21
2022-12-27T15:03:03.167Z,53.13
2022-12-27T15:06:33.317Z,53.73
2022-12-27T15:10:06.085Z,53.98
2022-12-27T15:13:26.643Z,54.23
2022-12-27T15:17:16.509Z,54.26
2022-12-27T15:20:37.419Z,54.03
2022-12-27T15:24:11.415Z,54.67
2022-12-27T15:27:20.262Z,54.58
2022-12-27T15:30:44.491Z,55.27
2022-12-27T15:34:11.824Z,55.18
2022-12-27T15:37:48.329Z,55.30
2022-12-27T15:41:19.937Z,55.50
2022-12-27T15:44:37.735Z,55.62
2022-12-27T15:47:59.502Z,55.20
2022-12-27T15:51:29.201Z,55.74
2022-12-27T15:54:58.175Z,54.72
2022-12-27T15:58:19.971Z,54.09
2022-12-27T16:01:27.758Z,53.58
2022-12-27T16:04:52.081Z,53.27
2022-12-27T16:08:03.641Z,52.62
2022-12-27T16:11:11.782Z,51.89
2022-12-27T16:14:35.279Z,52.14
2022-12-27T16:17:54.420Z,52.40
2022-12-27T16:21:04.928Z,52.79
2022-12-27T16:24:15.109Z,53.20
2022-12-27T16:27:37.803Z,53.62
2022-12-27T16:30:42.287Z,53.73
2022-12-27T16:33:44.854Z,53.79
2022-12-27T16:36:48.462Z,53.31
2022-12-27T16:40:15.358Z,53.48
2022-12-27T16:43:20.571Z,53.37
2022-12-27T16:46:31.986Z,53.15
2022-12-27T16:49:55.385Z,53.12
2022-12-27T16:53:16.518Z,53.51
2022-12-27T16:56:21.965Z,53.92
2022-12-27T17:00:08.688Z,54.63
2022-12-27T17:03:30.011Z,54.74
2022-12-27T17:06:34.030Z,55.19
2022-12-27T17:09:42.157Z,55.53
2022-12-27T17:12:52.822Z,55.92
2022-12-27T17:16:06.235Z,56.45
2022-12-27T17:19:19.914Z,56.08
2022-12-27T17:22:27.431Z,56.80
2022-12-27T17:25:49.307Z,57.12
2022-12-27T17:29:05.629Z,57.91
2022-12-27T17:32:45.212Z,60.55
2022-12-27T17:36:09.351Z,61.42
2022-12-27T17:39:27.286Z,61.98
2022-12-27T17:43:09.265Z,63.00
2022-12-27T17:46:30.052Z,63.50
2022-12-27T17:49:33.309Z,64.46
2022-12-27T17:52:54.345Z,66.32
2022-12-27T17:56:20.005Z,66.16
2022-12-27T17:59:27.898Z,65.32
2022-12-27T18:02:34.510Z,69.18
2022-12-27T18:05:42.036Z,66.72
2022-12-27T18:08:48.984Z,69.12
2022-12-27T18:11:52.132Z,70.90
2022-12-27T18:15:00.430Z,68.84
2022-12-27T18:18:06.209Z,70.76
2022-12-27T18:21:28.239Z,69.56
2022-12-27T18:24:33.536Z,67.75
2022-12-27T18:27:35.935Z,71.69
2022-12-27T18:30:47.725Z,72.83
2022-12-27T18:33:56.430Z,73.18
2022-12-27T18:37:02.682Z,74.08
2022-12-27T18:40:05.755Z,74.42
2022-12-27T18:43:15.594Z,71.01
2022-12-27T18:46:33.705Z,69.17
2022-12-27T18:49:37.227Z,68.28
2022-12-27T18:52:41.596Z,69.07
2022-12-27T18:56:00.554Z,72.37
2022-12-27T18:59:26.462Z,70.02
2022-12-27T19:02:34.833Z,70.42
2022-12-27T19:05:37.701Z,72.31
2022-12-27T19:08:53.061Z,72.59
2022-12-27T19:11:59.493Z,73.08
2022-12-27T19:15:04.685Z,75.79
2022-12-27T19:18:22.138Z,76.51
2022-12-27T19:21:34.427Z,76.49
2022-12-27T19:24:37.540Z,77.13
2022-12-27T19:27:40.277Z,77.56
2022-12-27T19:30:47.005Z,77.05
2022-12-27T19:33:55.896Z,76.33
2022-12-27T19:36:59.461Z,77.50
2022-12-27T19:40:02.397Z,77.46
2022-12-27T19:43:04.974Z,77.47
2022-12-27T19:46:08.991Z,78.22
2022-12-27T19:52:34.156Z,79.14
2022-12-27T19:55:36.965Z,79.14
2022-12-27T19:58:39.675Z,79.34
2022-12-27T20:01:42.488Z,77.63
2022-12-27T20:04:45.035Z,77.59
2022-12-27T20:07:47.540Z,77.62
2022-12-27T20:10:50.361Z,77.54
2022-12-27T20:13:52.876Z,78.55
2022-12-27T20:16:55.773Z,78.94
2022-12-27T20:19:59.044Z,79.13
2022-12-27T20:23:01.705Z,79.29
2022-12-27T20:26:04.211Z,79.58
2022-12-27T20:29:06.890Z,78.16
2022-12-27T20:32:09.987Z,77.78
2022-12-27T20:35:12.689Z,77.66
2022-12-27T20:38:15.555Z,78.89
2022-12-27T20:41:20.719Z,79.59
2022-12-27T20:44:23.302Z,80.45
2022-12-27T20:47:25.973Z,80.39
2022-12-27T20:50:29.082Z,80.35
2022-12-27T20:53:31.544Z,80.61
2022-12-27T20:56:35.264Z,81.18
2022-12-27T20:59:37.976Z,81.83
2022-12-27T21:02:41.034Z,82.20
2022-12-27T21:05:44.570Z,82.09
2022-12-27T21:08:54.387Z,81.33
2022-12-27T21:11:59.621Z,80.13
2022-12-27T21:15:02.393Z,80.42
2022-12-27T21:18:05.782Z,81.07
2022-12-27T21:21:12.366Z,81.12
2022-12-27T21:24:15.198Z,81.89
2022-12-27T21:27:17.683Z,82.34
2022-12-27T21:30:20.379Z,82.49
2022-12-27T21:33:23.866Z,81.94
2022-12-27T21:36:29.417Z,82.18
2022-12-27T21:39:33.573Z,82.07
2022-12-27T21:42:36.068Z,81.89
2022-12-27T21:45:38.536Z,81.34
2022-12-27T21:48:41.004Z,81.50
2022-12-27T21:51:44.054Z,81.98
2022-12-27T21:54:46.499Z,82.33
2022-12-27T21:57:48.976Z,82.48
2022-12-27T22:00:57.695Z,82.42
2022-12-27T22:04:00.478Z,81.83
2022-12-27T22:07:03.110Z,82.37
2022-12-27T22:10:06.252Z,82.67
2022-12-27T22:13:10.770Z,82.57
2022-12-27T22:16:15.933Z,83.09
2022-12-27T22:19:18.417Z,83.21
2022-12-27T22:22:20.872Z,83.20
2022-12-27T22:25:23.383Z,83.11
2022-12-27T22:28:26.252Z,83.37
2022-12-27T22:31:31.019Z,82.70
2022-12-27T22:34:33.516Z,83.03
2022-12-27T22:37:36.043Z,82.83
2022-12-27T22:40:43.228Z,82.75
2022-12-27T22:43:54.323Z,81.76
2022-12-27T22:50:22.362Z,82.53
2022-12-27T22:53:25.023Z,83.25
2022-12-27T22:56:30.433Z,84.76
2022-12-27T22:59:33.588Z,84.57
2022-12-27T23:02:36.889Z,84.61
2022-12-27T23:05:39.567Z,84.58
2022-12-27T23:08:43.495Z,83.99
2022-12-27T23:11:46.091Z,84.04
2022-12-27T23:14:48.581Z,85.13
2022-12-27T23:17:52.020Z,85.04
2022-12-27T23:21:21.432Z,84.29
2022-12-27T23:24:17.802Z,83.88
2022-12-27T23:27:20.294Z,84.65
2022-12-27T23:30:22.987Z,84.75
2022-12-27T23:33:25.524Z,84.47
2022-12-27T23:36:27.992Z,84.52
2022-12-27T23:39:30.632Z,85.19
2022-12-27T23:42:33.103Z,85.48
2022-12-27T23:45:35.631Z,85.20
2022-12-27T23:48:38.262Z,84.73
2022-12-27T23:51:40.709Z,85.75
2022-12-27T23:54:43.305Z,85.53
2022-12-27T23:57:45.757Z,86.33
